createdAt,value
2023-05-11T00:03:02.307Z,9.60
2023-05-11T00:08:04.148Z,9.59
2023-05-11T00:13:06.154Z,9.56
2023-05-11T00:18:07.997Z,9.53
2023-05-11T00:23:09.664Z,9.51
2023-05-11T00:28:11.369Z,9.49
2023-05-11T00:33:13.130Z,9.44
2023-05-11T00:38:15.706Z,9.37
2023-05-11T00:43:17.396Z,9.24
2023-05-11T00:48:19.468Z,9.09
2023-05-11T00:53:21.620Z,8.95
2023-05-11T00:58:23.789Z,8.79
2023-05-11T01:03:26.716Z,8.64
2023-05-11T01:08:48.093Z,8.49
2023-05-11T01:13:56.208Z,8.33
2023-05-11T01:19:12.627Z,8.20
2023-05-11T01:24:32.064Z,8.04
2023-05-11T01:29:58.700Z,7.94
2023-05-11T01:35:23.343Z,7.90
2023-05-11T01:40:29.446Z,7.90
2023-05-11T01:45:34.726Z,7.92
2023-05-11T01:50:38.820Z,7.93
2023-05-11T01:55:42.610Z,7.91
2023-05-11T02:00:45.547Z,7.86
2023-05-11T02:05:49.546Z,7.82
2023-05-11T02:10:51.864Z,7.88
2023-05-11T02:15:56.777Z,7.93
2023-05-11T02:21:00.335Z,7.95
2023-05-11T02:26:03.797Z,7.90
2023-05-11T02:31:12.062Z,7.78
2023-05-11T02:36:19.473Z,7.60
2023-05-11T02:41:27.848Z,7.37
2023-05-11T02:46:36.875Z,7.14
2023-05-11T02:51:42.916Z,6.92
2023-05-11T02:56:45.733Z,6.76
2023-05-11T03:01:48.239Z,6.69
2023-05-11T03:06:50.834Z,6.65
2023-05-11T03:11:53.507Z,6.63
2023-05-11T03:16:57.108Z,6.60
2023-05-11T03:22:00.968Z,6.61
2023-05-11T03:27:05.866Z,6.63
2023-05-11T03:32:09.518Z,6.68
2023-05-11T03:37:14.743Z,6.74
2023-05-11T03:42:18.369Z,6.81
2023-05-11T03:47:20.980Z,7.18
2023-05-11T03:52:23.588Z,7.36
2023-05-11T03:57:26.786Z,7.40
2023-05-11T04:07:12.914Z,7.47
2023-05-11T04:12:14.679Z,7.44
2023-05-11T04:17:16.973Z,7.50
2023-05-11T04:22:19.662Z,7.60
2023-05-11T04:27:21.347Z,7.73
2023-05-11T04:32:23.587Z,7.84
2023-05-11T04:37:25.607Z,7.91
2023-05-11T04:42:27.679Z,7.96
2023-05-11T04:47:31.039Z,8.04
2023-05-11T04:52:33.575Z,8.35
2023-05-11T04:57:35.465Z,9.36
2023-05-11T05:02:38.637Z,10.58
2023-05-11T05:07:40.598Z,11.70
2023-05-11T05:12:42.438Z,12.70
2023-05-11T05:17:44.449Z,13.48
2023-05-11T05:22:46.440Z,14.05
2023-05-11T05:27:48.199Z,14.46
2023-05-11T05:32:54.991Z,14.72
2023-05-11T05:37:56.772Z,14.93
2023-05-11T05:42:58.613Z,15.06
2023-05-11T05:48:00.847Z,14.89
2023-05-11T05:53:02.860Z,14.86
2023-05-11T05:58:05.661Z,15.03
2023-05-11T06:03:07.578Z,15.17
2023-05-11T06:08:11.707Z,15.66
2023-05-11T06:13:14.272Z,16.32
2023-05-11T06:18:16.786Z,16.86
2023-05-11T06:23:19.016Z,17.53
2023-05-11T06:28:24.347Z,18.32
2023-05-11T06:33:27.103Z,19.02
2023-05-11T06:38:30.132Z,19.52
2023-05-11T06:43:32.167Z,19.49
2023-05-11T06:48:36.299Z,19.26
2023-05-11T06:53:38.672Z,19.22
2023-05-11T06:58:40.341Z,19.15
2023-05-11T07:03:42.171Z,19.41
2023-05-11T07:08:44.116Z,19.78
2023-05-11T07:13:45.995Z,20.23
2023-05-11T07:18:47.705Z,20.58
2023-05-11T07:23:49.534Z,20.93
2023-05-11T07:28:51.210Z,20.77
2023-05-11T07:33:53.374Z,20.70
2023-05-11T07:38:55.222Z,21.20
2023-05-11T07:43:56.919Z,21.70
2023-05-11T07:49:13.681Z,21.80
2023-05-11T07:54:18.832Z,21.75
2023-05-11T07:59:21.812Z,21.45
2023-05-11T08:04:23.730Z,21.33
2023-05-11T08:09:25.479Z,21.41
2023-05-11T08:14:27.263Z,21.94
2023-05-11T08:19:28.879Z,22.55
2023-05-11T08:24:30.532Z,23.13
2023-05-11T08:29:32.199Z,23.35
2023-05-11T08:34:33.938Z,23.66
2023-05-11T08:39:46.580Z,23.88
2023-05-11T08:44:49.636Z,24.00
2023-05-11T08:49:54.598Z,24.26
2023-05-11T08:54:56.337Z,24.54
2023-05-11T08:59:59.988Z,24.97
2023-05-11T09:05:04.293Z,25.39
2023-05-11T09:10:07.253Z,25.68
2023-05-11T09:15:09.594Z,26.13
2023-05-11T09:20:11.862Z,26.48
2023-05-11T09:25:15.009Z,26.97
2023-05-11T09:30:22.847Z,26.75
2023-05-11T09:35:27.382Z,26.03
2023-05-11T09:40:34.276Z,24.90
2023-05-11T09:45:46.389Z,24.03
2023-05-11T09:50:49.641Z,23.82
2023-05-11T09:55:53.138Z,23.61
2023-05-11T10:00:54.871Z,23.18
2023-05-11T10:05:59.400Z,23.72
2023-05-11T10:11:06.778Z,24.99
2023-05-11T10:16:10.277Z,26.17
2023-05-11T10:21:15.338Z,26.62
2023-05-11T10:26:17.952Z,26.89
2023-05-11T10:31:24.178Z,27.84
2023-05-11T10:36:26.464Z,28.74
2023-05-11T10:41:48.184Z,29.19
2023-05-11T10:47:22.174Z,29.06
2023-05-11T10:52:29.612Z,28.79
2023-05-11T10:58:09.481Z,28.35
2023-05-11T11:03:12.425Z,26.97
2023-05-11T11:08:14.219Z,25.82
2023-05-11T11:13:18.243Z,24.95
2023-05-11T11:18:21.629Z,25.16
2023-05-11T11:23:50.035Z,25.60
2023-05-11T11:28:54.915Z,26.65
2023-05-11T11:33:59.328Z,27.55
2023-05-11T11:39:03.794Z,28.07
2023-05-11T11:44:19.886Z,28.54
2023-05-11T11:49:27.212Z,28.77
2023-05-11T11:54:42.419Z,29.09
2023-05-11T11:59:49.118Z,29.27
2023-05-11T12:04:57.013Z,28.90
2023-05-11T12:10:02.037Z,28.78
2023-05-11T12:15:06.760Z,28.81
2023-05-11T12:20:13.651Z,28.95
2023-05-11T12:25:18.133Z,29.00
2023-05-11T12:30:24.684Z,29.16
2023-05-11T12:35:28.779Z,29.39
2023-05-11T12:40:31.357Z,28.71
2023-05-11T12:45:33.080Z,27.94
2023-05-11T12:50:43.808Z,28.08
2023-05-11T12:55:56.825Z,29.06
2023-05-11T13:00:59.864Z,29.19
2023-05-11T13:06:09.134Z,29.35
2023-05-11T13:11:22.567Z,29.72
2023-05-11T13:16:34.495Z,30.02
2023-05-11T13:21:36.399Z,30.48
2023-05-11T13:26:38.083Z,30.72
2023-05-11T13:31:47.946Z,30.10
2023-05-11T13:36:50.190Z,29.80
2023-05-11T13:41:53.672Z,29.31
2023-05-11T13:46:56.800Z,29.84
2023-05-11T13:51:59.977Z,30.24
2023-05-11T13:57:02.039Z,30.63
2023-05-11T14:02:03.956Z,30.75
2023-05-11T14:07:06.095Z,30.86
2023-05-11T14:12:08.220Z,30.84
2023-05-11T14:17:16.095Z,30.57
2023-05-11T14:22:17.759Z,30.01
2023-05-11T14:27:19.701Z,30.05
2023-05-11T14:32:21.615Z,29.87
2023-05-11T14:37:23.265Z,30.08
2023-05-11T14:42:25.007Z,29.85
2023-05-11T14:47:26.814Z,29.77
2023-05-11T14:52:28.540Z,30.00
2023-05-11T14:57:30.248Z,29.68
2023-05-11T15:02:32.017Z,28.84
2023-05-11T15:07:33.716Z,28.85
2023-05-11T15:12:35.639Z,28.51
2023-05-11T15:17:37.386Z,28.24
2023-05-11T15:22:39.093Z,27.33
2023-05-11T15:27:40.780Z,26.69
2023-05-11T15:32:43.069Z,26.27
2023-05-11T15:37:44.812Z,25.10
2023-05-11T15:42:46.500Z,24.47
2023-05-11T15:47:48.216Z,24.43
2023-05-11T15:52:50.069Z,24.94
2023-05-11T15:57:51.746Z,25.18
2023-05-11T16:02:53.567Z,25.09
2023-05-11T16:07:55.219Z,24.98
2023-05-11T16:12:58.789Z,25.72
2023-05-11T16:18:03.112Z,26.64
2023-05-11T16:23:06.862Z,26.71
2023-05-11T16:28:08.500Z,26.53
2023-05-11T16:33:10.439Z,26.48
2023-05-11T16:38:22.474Z,26.01
2023-05-11T16:43:24.286Z,25.88
2023-05-11T16:48:28.822Z,25.80
2023-05-11T16:53:31.702Z,25.73
2023-05-11T16:58:33.503Z,25.40
2023-05-11T17:03:35.352Z,25.12
2023-05-11T17:08:37.166Z,24.87
2023-05-11T17:13:38.836Z,24.71
2023-05-11T17:18:40.653Z,24.43
2023-05-11T17:23:43.487Z,24.12
2023-05-11T17:28:45.208Z,23.71
2023-05-11T17:33:46.955Z,23.01
2023-05-11T17:38:49.820Z,22.52
2023-05-11T17:43:51.507Z,21.97
2023-05-11T17:48:54.096Z,21.40
2023-05-11T17:53:56.249Z,20.71
2023-05-11T17:58:57.934Z,20.07
2023-05-11T18:04:00.621Z,19.37
2023-05-11T18:09:04.942Z,18.69
2023-05-11T18:14:06.930Z,18.18
2023-05-11T18:19:08.678Z,17.74
2023-05-11T18:24:10.705Z,17.37
2023-05-11T18:29:12.405Z,17.06
2023-05-11T18:34:14.134Z,16.75
2023-05-11T18:39:16.049Z,16.44
2023-05-11T18:44:19.202Z,16.18
2023-05-11T18:49:21.046Z,15.96
2023-05-11T18:54:22.702Z,15.74
2023-05-11T18:59:24.377Z,15.52
2023-05-11T19:04:26.951Z,15.31
2023-05-11T19:09:28.605Z,15.12
2023-05-11T19:14:30.540Z,15.00
2023-05-11T19:19:32.208Z,14.90
2023-05-11T19:24:35.098Z,14.82
2023-05-11T19:29:36.820Z,14.76
2023-05-11T19:34:38.835Z,14.72
2023-05-11T19:39:41.042Z,14.69
2023-05-11T19:44:44.255Z,14.66
2023-05-11T19:49:46.199Z,14.59
2023-05-11T19:54:47.829Z,14.48
2023-05-11T19:59:49.624Z,14.38
2023-05-11T20:04:51.828Z,14.28
2023-05-11T20:09:54.382Z,14.15
2023-05-11T20:14:56.055Z,14.04
2023-05-11T20:19:58.417Z,13.93
2023-05-11T20:25:00.190Z,13.83
2023-05-11T20:30:03.039Z,13.72
2023-05-11T20:35:05.704Z,13.56
2023-05-11T20:40:08.635Z,13.43
2023-05-11T20:45:10.436Z,13.32
2023-05-11T20:50:14.993Z,13.23
2023-05-11T20:55:17.725Z,13.16
2023-05-11T21:00:20.720Z,13.10
2023-05-11T21:05:25.515Z,13.05
2023-05-11T21:10:32.842Z,12.98
2023-05-11T21:15:37.834Z,12.88
2023-05-11T21:20:39.561Z,12.80
2023-05-11T21:25:41.375Z,12.71
2023-05-11T21:30:43.056Z,12.65
2023-05-11T21:35:44.932Z,12.56
2023-05-11T21:40:52.595Z,12.47
2023-05-11T21:45:54.669Z,12.38
2023-05-11T21:51:01.407Z,12.26
2023-05-11T21:56:03.140Z,12.19
2023-05-11T22:01:04.862Z,12.13
2023-05-11T22:06:06.798Z,12.03
2023-05-11T22:11:08.707Z,11.95
2023-05-11T22:16:10.410Z,11.87
2023-05-11T22:21:12.382Z,11.81
2023-05-11T22:26:14.047Z,11.73
2023-05-11T22:31:15.761Z,11.59
2023-05-11T22:36:17.428Z,11.45
2023-05-11T22:41:19.182Z,11.27
2023-05-11T22:46:20.880Z,11.11
2023-05-11T22:51:22.846Z,10.98
2023-05-11T22:56:24.614Z,10.90
2023-05-11T23:01:27.817Z,10.88
2023-05-11T23:06:30.013Z,10.87
2023-05-11T23:11:40.224Z,10.81
2023-05-11T23:16:44.091Z,10.76
2023-05-11T23:21:45.760Z,10.71
2023-05-11T23:26:47.481Z,10.68
2023-05-11T23:31:50.948Z,10.66
2023-05-11T23:36:53.114Z,10.62
2023-05-11T23:42:15.016Z,10.56
2023-05-11T23:47:18.395Z,10.50
2023-05-11T23:52:20.141Z,10.40
2023-05-11T23:57:21.813Z,10.33
